Time;durP1;ratioP1;P1;durP2;ratioP2;P2;SDS_P1;SDS_P2;PMS_P1;PMS_P2;Temp;Humidity;BMP_temperature;BMP_pressure;BME280_temperature;BME280_humidity;BME280_pressure;Samples;Min_cycle;Max_cycle;Signal;HPM_P1;HPM_P2
2023/02/02 08:51:01;;;;;;;5.73;0.90;;;8.80;99.90;;;;;;4279530;26;20996;-72
2023/02/02 08:53:28;;;;;;;4.63;0.80;;;8.90;99.90;;;;;;4937913;29;20213;-72
2023/02/02 08:55:59;;;;;;;6.47;1.00;;;8.80;99.90;;;;;;4937558;29;20237;-72
2023/02/02 08:58:26;;;;;;;2.00;0.90;;;8.80;99.90;;;;;;4936763;29;20213;-72
2023/02/02 09:00:53;;;;;;;5.17;1.10;;;8.80;99.90;;;;;;4937516;29;20212;-72
2023/02/02 09:03:20;;;;;;;4.57;1.00;;;8.90;99.90;;;;;;4937356;29;20208;-72
2023/02/02 09:05:47;;;;;;;3.57;1.13;;;9.10;99.90;;;;;;4937329;29;20738;-72
2023/02/02 09:08:15;;;;;;;5.13;0.90;;;9.10;99.90;;;;;;4937595;29;20616;-72
2023/02/02 09:10:42;;;;;;;5.20;1.37;;;9.10;99.90;;;;;;4937665;29;20213;-73
2023/02/02 09:13:08;;;;;;;2.30;0.80;;;9.20;99.90;;;;;;4937521;29;20212;-72
2023/02/02 09:15:35;;;;;;;5.60;1.10;;;9.30;99.90;;;;;;4934846;29;20240;-73
2023/02/02 09:18:02;;;;;;;3.43;0.90;;;9.20;99.90;;;;;;4935936;29;20618;-72
2023/02/02 09:20:29;;;;;;;4.77;0.80;;;9.20;99.90;;;;;;4936596;29;20222;-73
2023/02/02 09:22:56;;;;;;;5.57;0.77;;;9.30;99.90;;;;;;4936322;29;20209;-73
2023/02/02 09:25:26;;;;;;;7.13;1.27;;;9.40;99.90;;;;;;4936916;29;20683;-73
2023/02/02 09:27:53;;;;;;;5.17;0.90;;;9.40;99.90;;;;;;4937163;29;20308;-73
2023/02/02 09:30:20;;;;;;;5.80;0.67;;;9.50;99.90;;;;;;4937092;29;20208;-73
2023/02/02 09:32:49;;;;;;;4.47;0.93;;;9.60;99.90;;;;;;4936903;29;20216;-73
2023/02/02 09:35:16;;;;;;;3.80;0.90;;;9.50;99.90;;;;;;4936868;29;20288;-72
2023/02/02 09:37:44;;;;;;;3.80;0.60;;;9.50;99.90;;;;;;4936907;29;20610;-72
2023/02/02 09:40:16;;;;;;;3.53;0.60;;;9.50;99.90;;;;;;4928286;29;20913;-72
2023/02/02 09:43:05;;;;;;;7.87;1.03;;;9.70;99.90;;;;;;4927688;29;20212;-72
2023/02/02 09:45:41;;;;;;;7.93;0.90;;;9.80;99.90;;;;;;4927987;29;20206;-73
2023/02/02 09:48:19;;;;;;;2.57;0.70;;;10.00;99.90;;;;;;4926704;29;20200;-73
2023/02/02 09:50:49;;;;;;;6.90;0.90;;;10.10;99.90;;;;;;4934695;29;20217;-73
2023/02/02 09:53:22;;;;;;;7.30;0.80;;;10.00;99.90;;;;;;4936352;29;20209;-72
2023/02/02 09:55:52;;;;;;;2.33;0.67;;;10.10;99.90;;;;;;4935922;29;20240;-73
2023/02/02 09:58:24;;;;;;;4.03;0.90;;;10.10;99.90;;;;;;4936958;29;20208;-72
2023/02/02 10:00:56;;;;;;;4.40;0.70;;;10.10;99.90;;;;;;4936061;29;20204;-71
2023/02/02 10:03:27;;;;;;;4.57;0.60;;;10.20;99.90;;;;;;4936360;29;20219;-72
2023/02/02 10:06:01;;;;;;;8.07;0.83;;;10.20;99.90;;;;;;4917652;29;20241;-72
2023/02/02 10:08:38;;;;;;;5.00;0.90;;;10.20;99.90;;;;;;4916186;29;20209;-73
2023/02/02 10:11:19;;;;;;;2.13;0.53;;;10.20;99.90;;;;;;4919182;29;20219;-73
2023/02/02 10:13:50;;;;;;;5.47;0.83;;;10.30;99.90;;;;;;4934985;29;20209;-73
2023/02/02 10:16:20;;;;;;;4.20;1.00;;;10.30;99.90;;;;;;4934532;29;20256;-70
2023/02/02 10:18:50;;;;;;;4.23;0.70;;;10.30;99.90;;;;;;4934614;29;20208;-71
2023/02/02 10:21:25;;;;;;;2.00;0.60;;;10.40;99.90;;;;;;4934214;29;20216;-71
2023/02/02 10:23:53;;;;;;;3.60;0.53;;;10.50;99.90;;;;;;4934814;29;20212;-71
2023/02/02 10:26:22;;;;;;;1.83;0.63;;;10.50;99.90;;;;;;4934125;29;20235;-71
2023/02/02 10:29:05;;;;;;;2.30;0.63;;;10.30;99.90;;;;;;4935243;29;20219;-73
2023/02/02 10:31:42;;;;;;;2.63;0.70;;;10.30;99.90;;;;;;4934823;29;20216;-72
2023/02/02 10:34:17;;;;;;;4.30;1.30;;;10.50;99.90;;;;;;4931852;29;20213;-70
2023/02/02 10:36:56;;;;;;;5.90;1.37;;;10.50;99.90;;;;;;4924893;29;20255;-72
2023/02/02 10:39:34;;;;;;;3.50;0.70;;;10.60;99.90;;;;;;4934409;29;20205;-69
2023/02/02 10:42:14;;;;;;;4.00;0.77;;;10.60;99.90;;;;;;4934592;29;20204;-69
2023/02/02 10:44:47;;;;;;;5.90;0.90;;;10.50;99.90;;;;;;4935100;29;20201;-72
2023/02/02 10:47:22;;;;;;;5.93;1.17;;;10.50;99.90;;;;;;4934494;29;20271;-71
2023/02/02 10:49:54;;;;;;;6.10;1.20;;;10.60;99.90;;;;;;4934494;29;20223;-71
2023/02/02 10:52:28;;;;;;;1.90;0.87;;;10.60;99.90;;;;;;4933980;29;20256;-72
2023/02/02 10:55:00;;;;;;;1.33;0.67;;;10.70;99.90;;;;;;4934276;29;20219;-71
2023/02/02 10:57:38;;;;;;;5.63;0.60;;;10.80;99.90;;;;;;4934228;29;20227;-70
2023/02/02 11:00:15;;;;;;;2.40;0.60;;;10.70;99.90;;;;;;4934108;29;20233;-69
2023/02/02 11:02:42;;;;;;;3.63;0.90;;;10.70;99.90;;;;;;4933259;29;20218;-71
2023/02/02 11:08:02;;;;;;;4.37;0.90;;;10.50;99.90;;;;;;4934118;29;20223;-74
2023/02/02 11:10:32;;;;;;;2.63;0.60;;;10.60;99.90;;;;;;4934339;29;20213;-72
2023/02/02 11:13:01;;;;;;;3.60;1.03;;;10.80;99.90;;;;;;4934359;29;20220;-69
2023/02/02 11:15:31;;;;;;;4.60;1.30;;;10.80;99.90;;;;;;4934175;29;20236;-70
2023/02/02 11:18:14;;;;;;;3.93;1.10;;;10.80;99.90;;;;;;4932562;29;20212;-70
2023/02/02 11:20:44;;;;;;;3.77;0.80;;;10.80;99.90;;;;;;4933582;29;20501;-69
2023/02/02 11:23:18;;;;;;;5.67;0.77;;;10.80;99.90;;;;;;4936493;29;20219;-68
2023/02/02 11:25:45;;;;;;;2.07;0.80;;;11.00;99.90;;;;;;4937861;29;20208;-68
2023/02/02 11:28:17;;;;;;;5.00;0.80;;;10.90;99.90;;;;;;4937683;29;20200;-69
2023/02/02 11:30:48;;;;;;;3.83;0.90;;;10.90;99.90;;;;;;4937453;29;20205;-70
2023/02/02 11:33:25;;;;;;;2.30;0.63;;;10.90;99.90;;;;;;4937791;29;20208;-68
2023/02/02 11:35:54;;;;;;;2.07;0.60;;;11.10;99.90;;;;;;4936572;29;20236;-68
2023/02/02 11:38:21;;;;;;;5.70;0.80;;;11.10;99.90;;;;;;4937693;29;20216;-70
2023/02/02 11:40:55;;;;;;;10.60;1.90;;;11.40;99.90;;;;;;4937713;29;20223;-67
2023/02/02 11:43:27;;;;;;;5.07;1.37;;;11.20;99.90;;;;;;4937576;29;20212;-69
2023/02/02 11:45:58;;;;;;;5.63;0.87;;;11.40;99.90;;;;;;4936542;29;20236;-70
2023/02/02 11:48:30;;;;;;;8.57;0.90;;;11.60;99.90;;;;;;4937864;29;20212;-68
2023/02/02 11:50:59;;;;;;;1.93;0.70;;;11.80;99.90;;;;;;4935562;29;20227;-69
2023/02/02 11:53:29;;;;;;;3.63;0.60;;;11.60;99.90;;;;;;4937123;29;20728;-69
2023/02/02 11:55:59;;;;;;;4.27;0.90;;;11.20;99.90;;;;;;4937386;29;20288;-69
2023/02/02 11:58:27;;;;;;;2.83;0.80;;;11.10;99.90;;;;;;4936923;29;20292;-69
2023/02/02 12:01:02;;;;;;;3.93;0.70;;;11.00;99.90;;;;;;4937346;29;20212;-69
2023/02/02 12:03:32;;;;;;;5.80;1.27;;;11.10;99.90;;;;;;4937360;29;20636;-69
2023/02/02 12:06:01;;;;;;;3.60;0.80;;;11.10;99.90;;;;;;4937146;29;20233;-68
2023/02/02 12:08:30;;;;;;;8.10;0.87;;;11.30;99.90;;;;;;4936922;29;20217;-70
2023/02/02 12:10:59;;;;;;;6.30;1.00;;;11.30;99.90;;;;;;4937579;29;20205;-70
2023/02/02 12:13:45;;;;;;;2.93;0.97;;;11.40;99.90;;;;;;4937500;29;20216;-69
2023/02/02 12:16:39;;;;;;;4.30;0.97;;;11.40;99.90;;;;;;4935992;29;20669;-72
2023/02/02 12:19:24;;;;;;;2.90;0.50;;;11.20;99.90;;;;;;4928215;29;20556;-68
2023/02/02 12:21:59;;;;;;;3.57;0.93;;;11.00;99.90;;;;;;4928177;29;20208;-69
2023/02/02 12:24:31;;;;;;;5.27;0.60;;;10.90;99.90;;;;;;4928514;29;20209;-67
2023/02/02 12:27:11;;;;;;;3.77;0.87;;;10.80;99.90;;;;;;4928419;29;20857;-67
2023/02/02 12:30:13;;;;;;;3.07;0.80;;;10.80;99.90;;;;;;4925114;29;20215;-69
2023/02/02 12:32:56;;;;;;;1.83;0.53;;;10.90;99.90;;;;;;4936951;29;20212;-69
2023/02/02 12:35:33;;;;;;;6.23;0.90;;;11.00;99.90;;;;;;4937014;29;20216;-67
2023/02/02 12:38:11;;;;;;;2.93;0.67;;;10.90;99.90;;;;;;4936731;29;20212;-68
2023/02/02 12:40:57;;;;;;;3.30;0.80;;;10.90;99.90;;;;;;4936463;29;20219;-67
2023/02/02 12:43:34;;;;;;;4.00;1.10;;;10.90;99.90;;;;;;4937196;29;20205;-70
2023/02/02 12:46:13;;;;;;;2.80;0.63;;;11.20;99.90;;;;;;4937891;29;20237;-70
2023/02/02 12:48:55;;;;;;;3.67;0.80;;;11.30;99.90;;;;;;4937908;29;20272;-69
2023/02/02 12:51:38;;;;;;;4.20;0.73;;;11.40;99.90;;;;;;4937462;29;20209;-69
2023/02/02 12:54:34;;;;;;;2.60;0.80;;;11.50;99.90;;;;;;4937615;29;20567;-71
2023/02/02 12:57:12;;;;;;;2.50;0.70;;;11.40;99.90;;;;;;4937368;29;20240;-71
2023/02/02 13:00:11;;;;;;;4.23;1.00;;;11.50;99.90;;;;;;4937586;29;20212;-70
2023/02/02 13:02:44;;;;;;;4.83;0.80;;;11.60;99.90;;;;;;4937422;29;20429;-71
2023/02/02 13:05:40;;;;;;;3.13;0.67;;;11.60;99.90;;;;;;4937231;29;20569;-70
2023/02/02 13:08:11;;;;;;;2.63;0.80;;;11.60;99.90;;;;;;4937803;29;20215;-71
2023/02/02 13:10:41;;;;;;;3.63;1.10;;;11.70;99.90;;;;;;4937744;29;20209;-71
2023/02/02 13:13:16;;;;;;;4.00;0.80;;;11.70;99.90;;;;;;4937603;29;20574;-72
2023/02/02 13:15:46;;;;;;;2.97;1.50;;;11.60;99.90;;;;;;4937078;29;20215;-71
2023/02/02 13:18:18;;;;;;;2.47;0.77;;;11.50;99.90;;;;;;4937396;29;20205;-71
2023/02/02 13:20:51;;;;;;;1.70;1.00;;;11.40;99.90;;;;;;4937290;29;20213;-72
2023/02/02 13:23:23;;;;;;;2.27;1.13;;;11.50;99.90;;;;;;4937118;29;20213;-71
2023/02/02 13:25:55;;;;;;;3.10;0.70;;;11.60;99.90;;;;;;4937413;29;20228;-71
2023/02/02 13:28:33;;;;;;;2.30;0.77;;;11.60;99.90;;;;;;4937208;29;20212;-71
2023/02/02 13:31:03;;;;;;;2.87;0.70;;;11.80;99.90;;;;;;4937284;29;20215;-72
2023/02/02 13:33:33;;;;;;;1.90;1.07;;;11.80;99.90;;;;;;4936871;29;20215;-71
2023/02/02 13:36:05;;;;;;;2.20;0.60;;;11.70;99.90;;;;;;4936603;29;20704;-71
2023/02/02 13:38:33;;;;;;;3.47;0.80;;;11.60;99.90;;;;;;4937304;29;20216;-72
2023/02/02 13:41:04;;;;;;;4.40;0.80;;;11.40;99.90;;;;;;4937313;29;20351;-71
2023/02/02 13:43:42;;;;;;;2.40;0.80;;;11.40;99.90;;;;;;4936740;29;20668;-72
2023/02/02 13:46:20;;;;;;;4.20;0.90;;;11.50;99.90;;;;;;4935912;29;20228;-71
2023/02/02 13:48:56;;;;;;;2.63;0.57;;;11.60;99.90;;;;;;4936712;29;20215;-71
2023/02/02 13:51:44;;;;;;;1.57;0.67;;;11.80;99.90;;;;;;4936430;29;20205;-71
2023/02/02 13:54:46;;;;;;;2.53;1.00;;;11.80;99.90;;;;;;4936625;29;20213;-71
2023/02/02 13:57:24;;;;;;;2.00;0.50;;;11.90;99.90;;;;;;4936390;29;20299;-71
2023/02/02 14:00:00;;;;;;;2.27;0.60;;;11.90;99.90;;;;;;4936724;29;20309;-71
2023/02/02 14:02:32;;;;;;;2.50;0.70;;;11.90;99.90;;;;;;4936468;29;20211;-71
2023/02/02 14:05:02;;;;;;;6.43;0.80;;;11.60;99.90;;;;;;4936551;29;20235;-70
2023/02/02 14:07:40;;;;;;;2.37;0.60;;;11.40;99.90;;;;;;4936130;29;20250;-70
2023/02/02 14:10:23;;;;;;;2.57;0.70;;;11.60;99.90;;;;;;4936656;29;20219;-71
2023/02/02 14:12:51;;;;;;;5.83;0.70;;;12.00;99.90;;;;;;4936450;29;20212;-71
2023/02/02 14:15:18;;;;;;;5.17;0.63;;;11.90;99.90;;;;;;4935929;29;20209;-71
2023/02/02 14:17:54;;;;;;;2.80;0.57;;;12.00;99.90;;;;;;4935481;29;20248;-71
2023/02/02 14:20:45;;;;;;;4.67;0.50;;;12.20;99.90;;;;;;4935340;29;20211;-71
2023/02/02 14:23:51;;;;;;;2.33;0.70;;;12.20;99.90;;;;;;4936145;29;20690;-71
2023/02/02 14:26:20;;;;;;;2.10;0.70;;;12.10;99.90;;;;;;4935737;29;20233;-71
2023/02/02 14:28:50;;;;;;;3.63;0.60;;;11.80;99.90;;;;;;4936063;29;20221;-71
2023/02/02 14:31:42;;;;;;;3.90;1.10;;;11.50;99.90;;;;;;4936099;29;20208;-71
2023/02/02 14:34:28;;;;;;;1.33;0.63;;;11.30;99.90;;;;;;4935906;29;20787;-71
2023/02/02 14:37:10;;;;;;;2.93;0.70;;;11.20;99.90;;;;;;4935203;29;20339;-71
2023/02/02 14:39:47;;;;;;;1.50;0.70;;;11.20;99.90;;;;;;4935958;29;20215;-71
2023/02/02 14:45:25;;;;;;;3.80;0.70;;;11.10;99.90;;;;;;4935966;29;20344;-71
2023/02/02 14:47:54;;;;;;;2.10;0.67;;;11.10;99.90;;;;;;4935668;29;20347;-71
2023/02/02 14:50:34;;;;;;;4.73;1.00;;;11.20;99.90;;;;;;4960703;23;20235;-73
2023/02/02 14:53:05;;;;;;;3.17;0.77;;;11.20;99.90;;;;;;4954826;29;20606;-73
2023/02/02 14:55:33;;;;;;;8.07;0.97;;;11.40;99.90;;;;;;4954559;28;20210;-73
2023/02/02 14:58:04;;;;;;;5.13;1.00;;;11.30;99.90;;;;;;4954388;29;20251;-74
2023/02/02 15:00:33;;;;;;;3.63;0.80;;;11.20;99.90;;;;;;4954645;29;20283;-74
2023/02/02 15:03:45;;;;;;;4.10;0.80;;;11.10;99.90;;;;;;4954490;29;20548;-73
2023/02/02 15:06:25;;;;;;;2.13;0.90;;;11.00;99.90;;;;;;4954366;29;20249;-73
2023/02/02 15:09:28;;;;;;;2.13;0.70;;;10.90;99.90;;;;;;4954522;29;20701;-73
2023/02/02 15:12:31;;;;;;;3.27;1.20;;;11.00;99.90;;;;;;4949927;28;20570;-74
2023/02/02 15:15:09;;;;;;;5.33;1.00;;;11.10;99.90;;;;;;4954587;29;20562;-74
2023/02/02 15:17:48;;;;;;;2.60;0.83;;;11.20;99.90;;;;;;4954095;29;20243;-74
2023/02/02 15:20:22;;;;;;;3.90;0.90;;;11.10;99.90;;;;;;4954453;29;20554;-73
2023/02/02 15:22:55;;;;;;;2.77;0.77;;;11.10;99.90;;;;;;4954415;29;20230;-73
2023/02/02 15:25:29;;;;;;;2.40;0.73;;;11.10;99.90;;;;;;4954403;29;20208;-73
2023/02/02 15:28:00;;;;;;;3.53;0.87;;;11.10;99.90;;;;;;4954613;29;20208;-72
2023/02/02 15:30:33;;;;;;;2.40;0.97;;;11.00;99.90;;;;;;4954343;29;20208;-74
2023/02/02 15:33:06;;;;;;;2.67;0.80;;;11.00;99.90;;;;;;4954628;29;20208;-73
2023/02/02 15:35:33;;;;;;;3.97;0.80;;;11.00;99.90;;;;;;4954268;29;20208;-72
2023/02/02 15:38:04;;;;;;;4.13;0.70;;;10.90;99.90;;;;;;4954257;29;20595;-73
2023/02/02 15:40:31;;;;;;;4.30;1.00;;;10.90;99.90;;;;;;4941752;29;20201;-73
2023/02/02 15:43:01;;;;;;;1.77;0.83;;;10.70;99.90;;;;;;4935076;29;20569;-74
2023/02/02 15:45:34;;;;;;;1.93;0.97;;;10.70;99.90;;;;;;4935307;29;20780;-74
2023/02/02 15:48:05;;;;;;;2.97;0.80;;;10.70;99.90;;;;;;4934899;29;20221;-74
2023/02/02 15:50:32;;;;;;;5.40;0.87;;;10.60;99.90;;;;;;4935158;29;20231;-73
2023/02/02 15:52:59;;;;;;;2.60;0.80;;;10.70;99.90;;;;;;4936544;29;20655;-72
2023/02/02 15:55:31;;;;;;;3.10;0.83;;;10.50;99.90;;;;;;4935471;29;20665;-71
2023/02/02 15:57:58;;;;;;;2.50;1.13;;;10.60;99.90;;;;;;4935107;29;20656;-72
2023/02/02 16:00:29;;;;;;;3.97;1.10;;;10.60;99.90;;;;;;4953434;29;20207;-73
2023/02/02 16:03:01;;;;;;;4.60;1.40;;;10.60;99.90;;;;;;4944225;29;20268;-72
2023/02/02 16:05:46;;;;;;;1.60;0.97;;;10.50;99.90;;;;;;4935092;29;20209;-72
2023/02/02 16:08:17;;;;;;;1.67;0.70;;;10.50;99.90;;;;;;4936096;29;20248;-72
2023/02/02 16:10:44;;;;;;;2.57;0.90;;;10.40;99.90;;;;;;4943678;29;20652;-73
2023/02/02 16:13:23;;;;;;;2.43;1.10;;;10.40;99.90;;;;;;4945837;29;20216;-73
2023/02/02 16:15:58;;;;;;;4.57;1.00;;;10.30;99.90;;;;;;4938602;29;20299;-72
2023/02/02 16:18:26;;;;;;;5.33;1.93;;;10.30;99.90;;;;;;4938492;29;20239;-72
2023/02/02 16:20:54;;;;;;;3.63;1.07;;;10.30;99.90;;;;;;4938315;29;20209;-73
2023/02/02 16:23:25;;;;;;;2.80;0.90;;;10.20;99.90;;;;;;4938191;29;20205;-73
2023/02/02 16:25:55;;;;;;;3.00;1.17;;;10.20;99.90;;;;;;4938395;29;20231;-72
2023/02/02 16:28:23;;;;;;;4.80;1.60;;;10.20;99.90;;;;;;4938392;29;20298;-72
2023/02/02 16:30:51;;;;;;;4.33;1.00;;;10.10;99.90;;;;;;4938499;29;20213;-73
2023/02/02 16:33:33;;;;;;;2.57;0.97;;;10.10;99.90;;;;;;4938251;29;20264;-72
2023/02/02 16:35:59;;;;;;;4.00;2.03;;;10.10;99.90;;;;;;4938072;29;20224;-73
2023/02/02 16:38:31;;;;;;;2.23;0.97;;;10.10;99.90;;;;;;4938189;29;20239;-73
2023/02/02 16:41:06;;;;;;;1.63;0.83;;;10.20;99.90;;;;;;4937586;29;20560;-72
2023/02/02 16:43:34;;;;;;;3.90;1.10;;;10.20;99.90;;;;;;4938017;29;20208;-74
2023/02/02 16:46:05;;;;;;;6.67;1.37;;;10.10;99.90;;;;;;4938399;29;20236;-74
2023/02/02 16:48:35;;;;;;;12.37;4.33;;;10.10;99.90;;;;;;4952405;29;20204;-74
2023/02/02 16:51:06;;;;;;;4.17;2.00;;;10.10;99.90;;;;;;4937758;29;20257;-73
2023/02/02 16:53:33;;;;;;;1.40;0.80;;;10.10;99.90;;;;;;4938016;29;20212;-74
2023/02/02 16:56:00;;;;;;;6.80;1.50;;;10.00;99.90;;;;;;4937965;29;20236;-73
2023/02/02 16:58:27;;;;;;;2.23;1.37;;;10.00;99.90;;;;;;4937769;29;20707;-73
2023/02/02 17:01:00;;;;;;;5.83;1.60;;;10.00;99.90;;;;;;4938084;29;20205;-73
2023/02/02 17:03:32;;;;;;;1.80;1.00;;;10.10;99.90;;;;;;4937500;29;20568;-74
2023/02/02 17:06:02;;;;;;;3.40;1.30;;;10.10;99.90;;;;;;4937519;29;20700;-73
2023/02/02 17:08:32;;;;;;;2.27;1.10;;;10.10;99.90;;;;;;4938115;29;20216;-73
2023/02/02 17:11:05;;;;;;;2.60;1.10;;;10.20;99.90;;;;;;4937605;29;20304;-73
2023/02/02 17:13:40;;;;;;;2.33;1.00;;;10.10;99.90;;;;;;4937771;29;20209;-74
2023/02/02 17:16:12;;;;;;;2.90;1.40;;;10.00;99.90;;;;;;4937490;29;20235;-73
2023/02/02 17:18:40;;;;;;;7.17;1.23;;;10.10;99.90;;;;;;4937282;29;20295;-72
2023/02/02 17:21:13;;;;;;;4.13;1.20;;;10.10;99.90;;;;;;4931973;29;20208;-73
2023/02/02 17:23:41;;;;;;;5.70;1.50;;;10.00;99.90;;;;;;4935539;29;20213;-74
2023/02/02 17:26:09;;;;;;;4.07;1.90;;;10.00;99.90;;;;;;4936209;29;20239;-74
2023/02/02 17:28:37;;;;;;;3.70;1.30;;;10.00;99.90;;;;;;4936183;29;20216;-71
2023/02/02 17:31:07;;;;;;;4.20;1.60;;;9.90;99.90;;;;;;4936046;29;20691;-71
2023/02/02 17:33:35;;;;;;;7.70;1.60;;;9.90;99.90;;;;;;4935763;29;20665;-73
2023/02/02 17:36:03;;;;;;;6.43;1.60;;;10.00;99.90;;;;;;4935735;29;20229;-75
2023/02/02 17:38:32;;;;;;;4.20;1.73;;;9.90;99.90;;;;;;4935914;29;20241;-74
2023/02/02 17:41:01;;;;;;;3.60;1.30;;;9.90;99.90;;;;;;4935970;29;20212;-73
2023/02/02 17:43:28;;;;;;;3.93;1.70;;;9.80;99.90;;;;;;4935587;29;20209;-73
2023/02/02 17:45:55;;;;;;;5.03;1.83;;;9.80;99.90;;;;;;4935658;29;20232;-75
2023/02/02 17:48:22;;;;;;;2.57;1.30;;;9.70;99.90;;;;;;4949834;29;20663;-74
2023/02/02 17:50:49;;;;;;;2.03;1.30;;;9.70;99.90;;;;;;4948566;29;20219;-73
2023/02/02 17:53:19;;;;;;;2.90;1.10;;;9.60;99.90;;;;;;4935426;29;20665;-74
2023/02/02 17:55:49;;;;;;;5.63;1.57;;;9.60;99.90;;;;;;4935455;29;20209;-74
2023/02/02 17:58:16;;;;;;;4.40;1.50;;;9.60;99.90;;;;;;4935515;29;20315;-72
2023/02/02 18:00:45;;;;;;;1.87;1.33;;;9.50;99.90;;;;;;4935294;29;20291;-74
2023/02/02 18:03:14;;;;;;;2.33;1.23;;;9.40;99.90;;;;;;4935087;29;20209;-73
2023/02/02 18:05:43;;;;;;;3.60;1.37;;;9.40;99.90;;;;;;4934886;29;20663;-74
2023/02/02 18:08:10;;;;;;;5.03;1.83;;;9.30;99.90;;;;;;4935592;29;20216;-73
2023/02/02 18:10:37;;;;;;;5.43;1.40;;;9.20;99.90;;;;;;4934769;29;20209;-73
2023/02/02 18:13:06;;;;;;;3.43;1.50;;;9.40;99.90;;;;;;4934930;29;20255;-73
2023/02/02 18:15:33;;;;;;;5.77;1.40;;;9.40;99.90;;;;;;4935051;29;20220;-72
2023/02/02 18:18:01;;;;;;;3.57;1.40;;;9.50;99.90;;;;;;4938144;29;20584;-73
2023/02/02 18:20:29;;;;;;;4.40;1.23;;;9.50;99.90;;;;;;4935149;29;20204;-74
2023/02/02 18:22:55;;;;;;;8.00;1.87;;;9.60;99.90;;;;;;4935079;29;20204;-71
2023/02/02 18:25:24;;;;;;;6.70;1.30;;;9.70;99.90;;;;;;4935057;29;20209;-74
2023/02/02 18:27:51;;;;;;;3.13;1.50;;;9.70;99.90;;;;;;4934839;29;20225;-74
2023/02/02 18:30:20;;;;;;;4.37;1.50;;;9.80;99.90;;;;;;4934895;29;20223;-74
2023/02/02 18:32:48;;;;;;;8.67;1.50;;;9.80;99.90;;;;;;4934962;29;20215;-75
2023/02/02 18:35:15;;;;;;;3.90;1.40;;;9.80;99.90;;;;;;4935685;29;20209;-74
2023/02/02 18:37:42;;;;;;;4.10;1.80;;;9.80;99.90;;;;;;4935782;29;20237;-74
2023/02/02 18:40:10;;;;;;;6.20;1.40;;;9.80;99.90;;;;;;4936360;29;20213;-74
2023/02/02 18:42:36;;;;;;;4.40;1.50;;;9.70;99.90;;;;;;4936241;29;20217;-73
2023/02/02 18:45:05;;;;;;;4.80;1.50;;;9.80;99.90;;;;;;4935867;29;20212;-74
2023/02/02 18:47:33;;;;;;;1.80;1.43;;;9.80;99.90;;;;;;4936183;29;20280;-73
2023/02/02 18:49:59;;;;;;;3.97;1.30;;;9.80;99.90;;;;;;4935701;29;20574;-74
2023/02/02 18:52:26;;;;;;;6.03;1.60;;;9.80;99.90;;;;;;4935758;29;20230;-74
2023/02/02 18:54:53;;;;;;;4.90;1.40;;;9.80;99.90;;;;;;4935615;29;20219;-73
2023/02/02 18:57:20;;;;;;;4.47;1.90;;;9.80;99.90;;;;;;4948911;29;20220;-74
2023/02/02 18:59:47;;;;;;;2.97;1.53;;;9.80;99.90;;;;;;4955093;29;20247;-74
2023/02/02 19:02:16;;;;;;;3.90;1.57;;;9.70;99.90;;;;;;4954857;29;20211;-73
2023/02/02 19:07:53;;;;;;;4.60;1.53;;;9.80;99.90;;;;;;4954916;29;20223;-73
2023/02/02 19:10:17;;;;;;;3.73;1.60;;;9.90;99.90;;;;;;4953972;29;20282;-73
2023/02/02 19:12:51;;;;;;;4.80;1.60;;;9.90;99.90;;;;;;4954630;28;20259;-73
2023/02/02 19:15:18;;;;;;;6.93;1.57;;;9.90;99.90;;;;;;4953585;29;20678;-73
2023/02/02 19:17:46;;;;;;;5.13;2.10;;;9.90;99.90;;;;;;4953415;29;20231;-73
2023/02/02 19:20:25;;;;;;;6.33;1.83;;;9.90;99.90;;;;;;4953570;29;20204;-73
2023/02/02 19:22:55;;;;;;;2.23;1.27;;;9.90;99.90;;;;;;4953763;29;20204;-73
2023/02/02 19:25:22;;;;;;;5.83;1.47;;;9.80;99.90;;;;;;4954136;28;20212;-73
2023/02/02 19:27:49;;;;;;;4.10;1.40;;;9.90;99.90;;;;;;4953798;29;20702;-73
2023/02/02 19:30:19;;;;;;;8.63;1.80;;;9.80;99.90;;;;;;4953954;29;20212;-73
2023/02/02 19:32:46;;;;;;;5.87;1.80;;;9.80;99.90;;;;;;4947278;29;20205;-73
2023/02/02 19:35:19;;;;;;;4.67;1.80;;;9.80;99.90;;;;;;4934745;29;20656;-72
2023/02/02 19:37:47;;;;;;;3.87;1.47;;;9.80;99.90;;;;;;4934754;29;20232;-73
2023/02/02 19:40:23;;;;;;;3.17;1.27;;;9.70;99.90;;;;;;4934984;29;20209;-73
2023/02/02 19:42:55;;;;;;;3.20;1.60;;;9.70;99.90;;;;;;4935240;29;20216;-73
2023/02/02 19:45:25;;;;;;;2.67;1.67;;;9.60;99.90;;;;;;4938601;29;20280;-73
2023/02/02 19:47:54;;;;;;;3.17;1.57;;;9.60;99.90;;;;;;4938236;29;20231;-73
2023/02/02 19:50:24;;;;;;;3.33;1.30;;;9.70;99.90;;;;;;4938157;29;20220;-73
2023/02/02 19:52:52;;;;;;;8.50;1.60;;;9.70;99.90;;;;;;4937870;29;20245;-73
2023/02/02 19:55:23;;;;;;;5.97;1.30;;;9.70;99.90;;;;;;4938187;29;20664;-73
2023/02/02 19:57:51;;;;;;;4.53;1.50;;;9.70;99.90;;;;;;4938113;29;20228;-73
2023/02/02 20:00:21;;;;;;;2.70;1.50;;;9.70;99.90;;;;;;4938373;29;20212;-73
2023/02/02 20:02:59;;;;;;;3.80;1.90;;;9.70;99.90;;;;;;4938724;29;20215;-73
2023/02/02 20:05:28;;;;;;;7.67;1.60;;;9.80;99.90;;;;;;4938784;29;20209;-72
2023/02/02 20:08:01;;;;;;;4.63;1.43;;;9.80;99.90;;;;;;4938833;29;20575;-72
2023/02/02 20:10:35;;;;;;;6.37;1.33;;;9.80;99.90;;;;;;4938572;29;20208;-73
2023/02/02 20:13:12;;;;;;;9.67;1.77;;;9.80;99.90;;;;;;4938709;29;20220;-72
2023/02/02 20:15:39;;;;;;;1.93;1.00;;;9.80;99.90;;;;;;4938442;29;20263;-74
2023/02/02 20:18:14;;;;;;;4.17;1.80;;;9.70;99.90;;;;;;4938325;29;20213;-73
2023/02/02 20:20:44;;;;;;;3.73;1.47;;;9.70;99.90;;;;;;4938606;29;20658;-73
2023/02/02 20:23:31;;;;;;;8.10;4.03;;;9.60;99.90;;;;;;4938166;29;20299;-73
2023/02/02 20:25:59;;;;;;;2.07;1.20;;;9.70;99.90;;;;;;4937975;29;20320;-73
2023/02/02 20:28:38;;;;;;;3.83;1.10;;;9.70;99.90;;;;;;4938530;29;20221;-72
2023/02/02 20:31:05;;;;;;;4.70;2.40;;;9.70;99.90;;;;;;4938077;29;20312;-72
2023/02/02 20:33:32;;;;;;;3.27;1.40;;;9.80;99.90;;;;;;4938020;29;20241;-73
2023/02/02 20:36:01;;;;;;;5.07;2.00;;;9.80;99.90;;;;;;4938097;29;20243;-73
2023/02/02 20:38:35;;;;;;;8.60;1.70;;;9.80;99.90;;;;;;4938317;29;20264;-73
2023/02/02 20:41:03;;;;;;;6.70;1.60;;;9.90;99.90;;;;;;4937960;29;20220;-72
2023/02/02 20:43:30;;;;;;;4.50;1.50;;;9.80;99.90;;;;;;4937827;29;20248;-73
2023/02/02 20:45:57;;;;;;;2.90;1.30;;;9.80;99.90;;;;;;4937638;29;20236;-73
2023/02/02 20:48:24;;;;;;;6.83;1.23;;;9.80;99.90;;;;;;4938078;29;20664;-73
2023/02/02 20:50:51;;;;;;;4.77;1.60;;;9.80;99.90;;;;;;4937705;29;20245;-73
2023/02/02 20:53:19;;;;;;;6.50;1.37;;;9.80;99.90;;;;;;4938546;29;20217;-73
2023/02/02 20:55:46;;;;;;;3.90;1.17;;;9.80;99.90;;;;;;4937603;29;20209;-73
2023/02/02 20:58:13;;;;;;;8.53;1.57;;;9.90;99.90;;;;;;4937244;29;20211;-73
2023/02/02 21:00:40;;;;;;;2.87;1.10;;;9.90;99.90;;;;;;4937436;29;20209;-72
2023/02/02 21:03:06;;;;;;;3.23;1.10;;;10.00;99.90;;;;;;4937671;29;20215;-73
2023/02/02 21:05:33;;;;;;;1.97;0.90;;;10.00;99.90;;;;;;4937266;29;20224;-73
2023/02/02 21:08:00;;;;;;;5.80;1.30;;;9.90;99.90;;;;;;4937401;29;21238;-72
2023/02/02 21:10:28;;;;;;;3.80;1.17;;;9.90;99.90;;;;;;4937324;29;20669;-73
2023/02/02 21:12:55;;;;;;;2.13;0.90;;;9.80;99.90;;;;;;4937394;29;20213;-73
2023/02/02 21:15:22;;;;;;;3.73;1.10;;;9.90;99.90;;;;;;4937633;29;20212;-73
2023/02/02 21:17:49;;;;;;;1.40;0.70;;;9.80;99.90;;;;;;4937140;29;20782;-73
2023/02/02 21:20:16;;;;;;;3.17;1.50;;;9.70;99.90;;;;;;4937066;29;20240;-73
2023/02/02 21:22:43;;;;;;;7.30;1.10;;;9.80;99.90;;;;;;4937300;29;20209;-73
2023/02/02 21:25:10;;;;;;;3.70;1.00;;;9.90;99.90;;;;;;4937211;29;20205;-72
2023/02/02 21:27:40;;;;;;;4.17;1.20;;;9.90;99.90;;;;;;4937089;29;20731;-72
2023/02/02 21:30:08;;;;;;;7.20;0.90;;;9.90;99.90;;;;;;4937294;29;20316;-73
2023/02/02 21:32:35;;;;;;;2.40;0.80;;;9.90;99.90;;;;;;4937270;29;20209;-72
2023/02/02 21:35:01;;;;;;;3.70;0.83;;;9.80;99.90;;;;;;4937153;29;20209;-72
2023/02/02 21:37:28;;;;;;;11.30;1.10;;;9.80;99.90;;;;;;4936950;29;20228;-73
2023/02/02 21:39:59;;;;;;;7.03;0.90;;;9.80;99.90;;;;;;4936966;29;20264;-73
2023/02/02 21:42:28;;;;;;;4.20;0.90;;;9.80;99.90;;;;;;4937109;29;20205;-72
2023/02/02 21:44:59;;;;;;;1.50;0.77;;;9.70;99.90;;;;;;4937135;29;20205;-72
2023/02/02 21:47:29;;;;;;;3.80;0.90;;;9.80;99.90;;;;;;4936828;29;20310;-72
2023/02/02 21:49:57;;;;;;;2.17;0.70;;;9.90;99.90;;;;;;4936919;29;20221;-72
2023/02/02 21:52:26;;;;;;;2.33;0.93;;;9.90;99.90;;;;;;4936669;29;20575;-73
2023/02/02 21:54:53;;;;;;;7.73;1.73;;;9.90;99.90;;;;;;4936775;29;20209;-72
2023/02/02 21:57:21;;;;;;;5.20;0.93;;;9.90;99.90;;;;;;4936446;29;20229;-73
2023/02/02 21:59:53;;;;;;;3.33;0.93;;;10.00;99.90;;;;;;4936542;29;20236;-73
2023/02/02 22:02:41;;;;;;;6.70;1.00;;;9.90;99.90;;;;;;4936332;29;20212;-72
2023/02/02 22:05:17;;;;;;;1.73;0.60;;;9.80;99.90;;;;;;4935117;29;20679;-72
2023/02/02 22:07:46;;;;;;;5.47;0.80;;;9.80;99.90;;;;;;4935593;29;20224;-73
2023/02/02 22:10:27;;;;;;;5.60;1.33;;;9.80;99.90;;;;;;4935925;29;20354;-73
2023/02/02 22:12:54;;;;;;;3.67;0.97;;;9.90;99.90;;;;;;4935454;29;20213;-72
2023/02/02 22:15:26;;;;;;;5.20;0.80;;;9.90;99.90;;;;;;4935562;29;20560;-72